Lake Wenatchee to Mission Ridge
Dirtyface Mt
Latest observation 09/03 17:00 PDT
| Time (PDT) | Temp °F 5980' | RH % 5980' | Min mph 5980' | Spd mph 5980' | Gust mph 5980' | Dir ° 5980' |
|---|---|---|---|---|---|---|
| 09/03 17:00 | 40 | 74 | 1 | 6 | 18 | 111 |
| 09/03 16:00 | 50 | 60 | 1 | 5 | 17 | 180 |
| 09/03 15:00 | 50 | 56 | 2 | 8 | 18 | 198 |
| 09/03 14:00 | 50 | 54 | 3 | 6 | 9 | 175 |
| 09/03 13:00 | 49 | 62 | 0 | 4 | 8 | 156 |
| 09/03 12:00 | 43 | 76 | 0 | 1 | 7 | 103 |
| 09/03 11:00 | 42 | 77 | 0 | 3 | 10 | 220 |
| 09/03 10:00 | 39 | 78 | 1 | 5 | 11 | 223 |
| 09/03 09:00 | 38 | 78 | 2 | 8 | 16 | 264 |
| 09/03 08:00 | 37 | 79 | 4 | 10 | 21 | 266 |
| 09/03 07:00 | 35 | 82 | 4 | 11 | 23 | 234 |
| 09/03 06:00 | 35 | 80 | 7 | 11 | 18 | 260 |
| 09/03 05:00 | 35 | 77 | 8 | 14 | 27 | 262 |
| 09/03 04:00 | 34 | 85 | 13 | 23 | 37 | 255 |
| 09/03 03:00 | 35 | 80 | 15 | 27 | 36 | 277 |
| 09/03 02:00 | 35 | 83 | 15 | 25 | 37 | 271 |
| 09/03 01:00 | 35 | 88 | 15 | 22 | 37 | 272 |
| 09/03 00:00 | 36 | 97 | 15 | 22 | 30 | 273 |
| 09/02 23:00 | 37 | 95 | 16 | 26 | 41 | 259 |
| 09/02 22:00 | 37 | 96 | 6 | 17 | 32 | 259 |
| 09/02 21:00 | 41 | 77 | 3 | 12 | 22 | 246 |
| 09/02 20:00 | 41 | 80 | 6 | 17 | 41 | 250 |
| 09/02 19:00 | 40 | 86 | 6 | 20 | 40 | 226 |
| 09/02 18:00 | 45 | 74 | 6 | 10 | 18 | 186 |
| 09/02 17:00 | 46 | 66 | 8 | 14 | 21 | 182 |
| 09/02 16:00 | 46 | 76 | 6 | 11 | 24 | 182 |
| 09/02 15:00 | 49 | 63 | 6 | 9 | 15 | 187 |
| 09/02 14:00 | 53 | 57 | 4 | 7 | 11 | 190 |
| 09/02 13:00 | 53 | 56 | 3 | 6 | 13 | 191 |
| 09/02 12:00 | 50 | 64 | 3 | 8 | 20 | 223 |
| 09/02 11:00 | 49 | 68 | 2 | 7 | 16 | 241 |
| 09/02 10:00 | 45 | 78 | 3 | 12 | 23 | 275 |
| 09/02 09:00 | 41 | 89 | 11 | 17 | 23 | 275 |
| 09/02 08:00 | 42 | 83 | 12 | 20 | 25 | 281 |
| 09/02 07:00 | 41 | 85 | 12 | 19 | 25 | 282 |
| 09/02 06:00 | 42 | 83 | 13 | 22 | 29 | 280 |
| 09/02 05:00 | 42 | 84 | 8 | 19 | 30 | 279 |
| 09/02 04:00 | 42 | 89 | 13 | 22 | 30 | 272 |
| 09/02 03:00 | 44 | 81 | 9 | 19 | 28 | 272 |
| 09/02 02:00 | 44 | 80 | 11 | 21 | 31 | 269 |
| 09/02 01:00 | 46 | 70 | 9 | 26 | 38 | 271 |
| 09/02 00:00 | 43 | 88 | 18 | 28 | 39 | 277 |
| 09/01 23:00 | 43 | 88 | 18 | 28 | 41 | 277 |
| 09/01 22:00 | 44 | 87 | 19 | 29 | 40 | 274 |
| 09/01 21:00 | 44 | 94 | 16 | 25 | 33 | 282 |
| 09/01 20:00 | 47 | 80 | 16 | 24 | 39 | 281 |
| 09/01 19:00 | 51 | 71 | 14 | 22 | 30 | 282 |
| 09/01 18:00 | 53 | 65 | 13 | 21 | 32 | 268 |
| 09/01 17:00 | 56 | 58 | 10 | 17 | 28 | 248 |
| 09/01 16:00 | 61 | 50 | 11 | 17 | 26 | 226 |
| 09/01 15:00 | 62 | 50 | 6 | 13 | 20 | 224 |
| 09/01 14:00 | 62 | 38 | 1 | 6 | 14 | 181 |
| 09/01 13:00 | 62 | 35 | 1 | 4 | 8 | 173 |
| 09/01 12:00 | 63 | 33 | 4 | 6 | 9 | 173 |
| 09/01 11:00 | 61 | 35 | 1 | 4 | 8 | 154 |
| 09/01 10:00 | 59 | 38 | 2 | 5 | 8 | 121 |
| 09/01 09:00 | 57 | 40 | 3 | 6 | 9 | 120 |
| 09/01 08:00 | 56 | 41 | 4 | 6 | 9 | 136 |
| 09/01 07:00 | 55 | 41 | 4 | 7 | 10 | 140 |
| 09/01 06:00 | 55 | 42 | 4 | 8 | 11 | 107 |
| 09/01 05:00 | 56 | 40 | 1 | 4 | 8 | 76 |
| 09/01 04:00 | 56 | 40 | 3 | 7 | 10 | 99 |
| 09/01 03:00 | 55 | 43 | 5 | 10 | 13 | 137 |
| 09/01 02:00 | 55 | 44 | 6 | 12 | 14 | 124 |
| 09/01 01:00 | 55 | 43 | 10 | 13 | 16 | 116 |
| 09/01 00:00 | 55 | 45 | 8 | 11 | 15 | 90 |
| 08/31 23:00 | 55 | 45 | 9 | 12 | 14 | 87 |
| 08/31 22:00 | 54 | 47 | 8 | 11 | 14 | 104 |
| 08/31 21:00 | 55 | 48 | 8 | 12 | 17 | 99 |
| 08/31 20:00 | 55 | 49 | 6 | 11 | 16 | 118 |
| 08/31 19:00 | 56 | 49 | 4 | 7 | 11 | 143 |
| 08/31 18:00 | 58 | 47 | 3 | 6 | 10 | 143 |
| 08/31 17:00 | 62 | 41 | 3 | 6 | 11 | 155 |
| 08/31 16:00 | 61 | 44 | 3 | 7 | 11 | 145 |
| 08/31 15:00 | 61 | 46 | 4 | 7 | 14 | 156 |
| 08/31 14:00 | 58 | 50 | 4 | 8 | 13 | 134 |
| 08/31 13:00 | 56 | 53 | 4 | 9 | 15 | 133 |
| 08/31 12:00 | 54 | 54 | 4 | 10 | 14 | 130 |
| 08/31 11:00 | 52 | 60 | 6 | 13 | 18 | 107 |
| 08/31 10:00 | 50 | 66 | 8 | 13 | 17 | 89 |
| 08/31 09:00 | 49 | 68 | 8 | 11 | 15 | 83 |
| 08/31 08:00 | 47 | 73 | 8 | 12 | 15 | 95 |
| 08/31 07:00 | 46 | 77 | 10 | 12 | 16 | 95 |
| 08/31 06:00 | 45 | 78 | 12 | 15 | 17 | 105 |
| 08/31 05:00 | 46 | 75 | 10 | 12 | 16 | 96 |
| 08/31 04:00 | 47 | 72 | 8 | 11 | 13 | 110 |
| 08/31 03:00 | 47 | 73 | 4 | 8 | 13 | 114 |
| 08/31 02:00 | 49 | 68 | 1 | 4 | 8 | 161 |
| 08/31 01:00 | 48 | 69 | 5 | 8 | 10 | 111 |
| 08/31 00:00 | 49 | 68 | 4 | 6 | 9 | 114 |
| 08/30 23:00 | 49 | 69 | 1 | 5 | 7 | 66 |
| 08/30 22:00 | 48 | 72 | 2 | 5 | 9 | 359 |
| 08/30 21:00 | 47 | 76 | 2 | 5 | 8 | 325 |
| 08/30 20:00 | 46 | 78 | 4 | 7 | 15 | 297 |
| 08/30 19:00 | 46 | 78 | 7 | 14 | 25 | 272 |
| 08/30 18:00 | 47 | 77 | 11 | 20 | 35 | 256 |
| 08/30 17:00 | 48 | 73 | 10 | 25 | 40 | 242 |
| 08/30 16:00 | 51 | 65 | 8 | 14 | 28 | 254 |
| 08/30 15:00 | 50 | 66 | 8 | 15 | 25 | 235 |
| 08/30 14:00 | 49 | 67 | 7 | 16 | 28 | 238 |
| 08/30 13:00 | 47 | 69 | 6 | 13 | 25 | 244 |
| 08/30 12:00 | 47 | 69 | 5 | 10 | 23 | 250 |
| 08/30 11:00 | 43 | 76 | 4 | 8 | 17 | 248 |
| 08/30 10:00 | 43 | 72 | 3 | 9 | 16 | 296 |
| 08/30 09:00 | 40 | 76 | 3 | 10 | 18 | 289 |
| 08/30 08:00 | 37 | 83 | 8 | 16 | 23 | 284 |
| 08/30 07:00 | 36 | 86 | 11 | 19 | 26 | 289 |
| 08/30 06:00 | 36 | 86 | 13 | 22 | 28 | 287 |
| 08/30 05:00 | 36 | 84 | 14 | 21 | 28 | 284 |
| 08/30 04:00 | 36 | 86 | 16 | 23 | 28 | 284 |
| 08/30 03:00 | 37 | 83 | 16 | 24 | 30 | 286 |
| 08/30 02:00 | 36 | 84 | 13 | 22 | 30 | 281 |
| 08/30 01:00 | 37 | 80 | 11 | 19 | 29 | 280 |
| 08/30 00:00 | 37 | 80 | 6 | 17 | 28 | 275 |
| 08/29 23:00 | 38 | 76 | 3 | 13 | 28 | 266 |
| 08/29 22:00 | 38 | 72 | 6 | 13 | 26 | 270 |
| 08/29 21:00 | 38 | 74 | 1 | 8 | 23 | 266 |
| 08/29 20:00 | 38 | 79 | 2 | 8 | 27 | 265 |
| 08/29 19:00 | 41 | 72 | 5 | 16 | 28 | 243 |
| 08/29 18:00 | 42 | 72 | 6 | 16 | 35 | 237 |
| 08/29 17:00 | 40 | 83 | 7 | 17 | 28 | 226 |
| 08/29 16:00 | 40 | 87 | 6 | 17 | 34 | 229 |
| 08/29 15:00 | 40 | 88 | 6 | 19 | 37 | 226 |
| 08/29 14:00 | 39 | 92 | 6 | 19 | 38 | 229 |
| 08/29 13:00 | 40 | 90 | 6 | 19 | 35 | 231 |
| 08/29 12:00 | 38 | 95 | 4 | 16 | 38 | 243 |
| 08/29 11:00 | 38 | 96 | 4 | 12 | 27 | 231 |
| 08/29 10:00 | 38 | 97 | 6 | 17 | 33 | 239 |
| 08/29 09:00 | 38 | 97 | 13 | 21 | 35 | 264 |
| 08/29 08:00 | 38 | 97 | 16 | 24 | 37 | 270 |
| 08/29 07:00 | 37 | 92 | 15 | 23 | 32 | 283 |
| 08/29 06:00 | 38 | 88 | 16 | 26 | 35 | 279 |
| 08/29 05:00 | 39 | 89 | 21 | 29 | 37 | 276 |
| 08/29 04:00 | 40 | 89 | 13 | 23 | 33 | 270 |
| 08/29 03:00 | 41 | 89 | 16 | 24 | 35 | 276 |
| 08/29 02:00 | 41 | 86 | 19 | 29 | 39 | 284 |
| 08/29 01:00 | 41 | 88 | 13 | 28 | 38 | 290 |
| 08/29 00:00 | 41 | 87 | 18 | 26 | 32 | 288 |
| 08/28 23:00 | 42 | 85 | 18 | 25 | 32 | 288 |
| 08/28 22:00 | 43 | 84 | 18 | 26 | 35 | 282 |
| 08/28 21:00 | 44 | 82 | 15 | 27 | 36 | 275 |
| 08/28 20:00 | 46 | 77 | 16 | 25 | 38 | 273 |
| 08/28 19:00 | 50 | 64 | 16 | 26 | 37 | 245 |
| 08/28 18:00 | 53 | 55 | 16 | 27 | 37 | 240 |
| 08/28 17:00 | 55 | 50 | 15 | 23 | 37 | 235 |
| 08/28 16:00 | 55 | 49 | 9 | 19 | 29 | 231 |
| 08/28 15:00 | 56 | 50 | 8 | 17 | 30 | 229 |
| 08/28 14:00 | 55 | 53 | 10 | 17 | 29 | 228 |
| 08/28 13:00 | 54 | 57 | 5 | 14 | 26 | 224 |
| 08/28 12:00 | 53 | 61 | 4 | 7 | 14 | 228 |
| 08/28 11:00 | 51 | 66 | 0 | 4 | 10 | 245 |
| 08/28 10:00 | 50 | 59 | 1 | 4 | 11 | 281 |
| 08/28 09:00 | 47 | 70 | 1 | 9 | 18 | 294 |
| 08/28 08:00 | 43 | 76 | 11 | 16 | 20 | 281 |
| 08/28 07:00 | 45 | 69 | 7 | 15 | 20 | 279 |
| 08/28 06:00 | 44 | 72 | 2 | 8 | 17 | 304 |
| 08/28 05:00 | 44 | 74 | 4 | 11 | 22 | 293 |
| 08/28 04:00 | 43 | 83 | 6 | 12 | 22 | 269 |
| 08/28 03:00 | 43 | 85 | 4 | 12 | 23 | 276 |
| 08/28 02:00 | 43 | 84 | 10 | 16 | 28 | 273 |
| 08/28 01:00 | 42 | 92 | 11 | 20 | 27 | 284 |
| 08/28 00:00 | 43 | 85 | 6 | 15 | 24 | 277 |
| 08/27 23:00 | 44 | 83 | 5 | 12 | 23 | 265 |
| 08/27 22:00 | 44 | 88 | 7 | 13 | 25 | 269 |
| 08/27 21:00 | 44 | 88 | 7 | 17 | 35 | 239 |
| 08/27 20:00 | 45 | 83 | 8 | 15 | 30 | 232 |
| 08/27 19:00 | 47 | 74 | 7 | 16 | 28 | 234 |
| 08/27 18:00 | 47 | 69 | 10 | 22 | 47 | 231 |

